sensor_id;sensor_type;location;lat;lon;timestamp;P1;durP1;ratioP1;P2;durP2;ratioP2
22628;SDS011;11481;53.694;9.910;2024-01-30T00:02:02;18.38;;;8.98;;
22628;SDS011;11481;53.694;9.910;2024-01-30T00:04:29;18.08;;;8.95;;
22628;SDS011;11481;53.694;9.910;2024-01-30T00:06:56;17.73;;;9.02;;
22628;SDS011;11481;53.694;9.910;2024-01-30T00:09:23;20.17;;;9.15;;
22628;SDS011;11481;53.694;9.910;2024-01-30T00:11:49;23.10;;;9.93;;
22628;SDS011;11481;53.694;9.910;2024-01-30T00:14:17;17.88;;;9.85;;
22628;SDS011;11481;53.694;9.910;2024-01-30T00:16:43;16.63;;;9.00;;
22628;SDS011;11481;53.694;9.910;2024-01-30T00:19:11;20.27;;;9.38;;
22628;SDS011;11481;53.694;9.910;2024-01-30T00:21:38;18.27;;;9.65;;
22628;SDS011;11481;53.694;9.910;2024-01-30T00:24:05;19.85;;;9.35;;
22628;SDS011;11481;53.694;9.910;2024-01-30T00:26:32;18.85;;;8.98;;
22628;SDS011;11481;53.694;9.910;2024-01-30T00:28:58;16.13;;;8.95;;
22628;SDS011;11481;53.694;9.910;2024-01-30T00:31:26;18.10;;;9.20;;
22628;SDS011;11481;53.694;9.910;2024-01-30T00:33:53;16.38;;;9.18;;
22628;SDS011;11481;53.694;9.910;2024-01-30T00:36:20;16.92;;;9.18;;
22628;SDS011;11481;53.694;9.910;2024-01-30T00:38:46;15.60;;;8.43;;
22628;SDS011;11481;53.694;9.910;2024-01-30T00:41:13;19.40;;;9.73;;
22628;SDS011;11481;53.694;9.910;2024-01-30T00:43:40;17.92;;;8.90;;
22628;SDS011;11481;53.694;9.910;2024-01-30T00:46:07;15.93;;;8.80;;
22628;SDS011;11481;53.694;9.910;2024-01-30T00:48:34;18.95;;;9.35;;
22628;SDS011;11481;53.694;9.910;2024-01-30T00:51:01;14.40;;;9.18;;
22628;SDS011;11481;53.694;9.910;2024-01-30T00:53:27;18.85;;;9.13;;
22628;SDS011;11481;53.694;9.910;2024-01-30T00:55:54;17.17;;;8.88;;
22628;SDS011;11481;53.694;9.910;2024-01-30T00:58:21;15.88;;;9.13;;
22628;SDS011;11481;53.694;9.910;2024-01-30T01:00:47;14.07;;;8.38;;
22628;SDS011;11481;53.694;9.910;2024-01-30T01:03:14;15.45;;;8.50;;
22628;SDS011;11481;53.694;9.910;2024-01-30T01:05:41;14.50;;;8.60;;
22628;SDS011;11481;53.694;9.910;2024-01-30T01:08:08;15.68;;;8.18;;
22628;SDS011;11481;53.694;9.910;2024-01-30T01:10:35;15.05;;;9.30;;
22628;SDS011;11481;53.694;9.910;2024-01-30T01:13:02;17.73;;;8.70;;
22628;SDS011;11481;53.694;9.910;2024-01-30T01:15:29;18.02;;;9.02;;
22628;SDS011;11481;53.694;9.910;2024-01-30T01:17:56;16.08;;;8.30;;
22628;SDS011;11481;53.694;9.910;2024-01-30T01:20:23;15.77;;;8.60;;
22628;SDS011;11481;53.694;9.910;2024-01-30T01:22:49;16.42;;;8.68;;
22628;SDS011;11481;53.694;9.910;2024-01-30T01:25:16;15.90;;;8.27;;
22628;SDS011;11481;53.694;9.910;2024-01-30T01:27:43;17.55;;;8.77;;
22628;SDS011;11481;53.694;9.910;2024-01-30T01:30:17;14.98;;;8.02;;
22628;SDS011;11481;53.694;9.910;2024-01-30T01:32:48;19.25;;;8.38;;
22628;SDS011;11481;53.694;9.910;2024-01-30T01:35:22;16.33;;;9.18;;
22628;SDS011;11481;53.694;9.910;2024-01-30T01:37:51;16.27;;;9.55;;
22628;SDS011;11481;53.694;9.910;2024-01-30T01:40:22;14.80;;;8.32;;
22628;SDS011;11481;53.694;9.910;2024-01-30T01:42:50;18.05;;;8.77;;
22628;SDS011;11481;53.694;9.910;2024-01-30T01:45:18;16.42;;;8.73;;
22628;SDS011;11481;53.694;9.910;2024-01-30T01:47:47;20.65;;;8.68;;
22628;SDS011;11481;53.694;9.910;2024-01-30T01:50:16;22.65;;;9.05;;
22628;SDS011;11481;53.694;9.910;2024-01-30T01:52:48;19.33;;;9.43;;
22628;SDS011;11481;53.694;9.910;2024-01-30T01:55:15;16.55;;;9.23;;
22628;SDS011;11481;53.694;9.910;2024-01-30T01:57:44;18.38;;;8.55;;
22628;SDS011;11481;53.694;9.910;2024-01-30T02:00:11;19.17;;;9.75;;
22628;SDS011;11481;53.694;9.910;2024-01-30T02:02:39;15.38;;;8.68;;
22628;SDS011;11481;53.694;9.910;2024-01-30T02:05:06;18.98;;;9.10;;
22628;SDS011;11481;53.694;9.910;2024-01-30T02:07:34;15.02;;;8.30;;
22628;SDS011;11481;53.694;9.910;2024-01-30T02:10:01;14.75;;;9.15;;
22628;SDS011;11481;53.694;9.910;2024-01-30T02:12:30;18.17;;;9.07;;
22628;SDS011;11481;53.694;9.910;2024-01-30T02:14:56;12.15;;;7.75;;
22628;SDS011;11481;53.694;9.910;2024-01-30T02:17:23;16.95;;;8.40;;
22628;SDS011;11481;53.694;9.910;2024-01-30T02:19:50;16.90;;;9.55;;
22628;SDS011;11481;53.694;9.910;2024-01-30T02:22:16;19.88;;;9.13;;
22628;SDS011;11481;53.694;9.910;2024-01-30T02:24:44;14.32;;;8.52;;
22628;SDS011;11481;53.694;9.910;2024-01-30T02:27:11;15.50;;;8.48;;
22628;SDS011;11481;53.694;9.910;2024-01-30T02:29:37;15.35;;;8.80;;
22628;SDS011;11481;53.694;9.910;2024-01-30T02:32:04;15.40;;;8.18;;
22628;SDS011;11481;53.694;9.910;2024-01-30T02:34:32;14.80;;;8.18;;
22628;SDS011;11481;53.694;9.910;2024-01-30T02:36:59;18.65;;;8.80;;
22628;SDS011;11481;53.694;9.910;2024-01-30T02:39:26;14.82;;;8.43;;
22628;SDS011;11481;53.694;9.910;2024-01-30T02:41:52;15.00;;;8.50;;
22628;SDS011;11481;53.694;9.910;2024-01-30T02:44:19;17.23;;;8.38;;
22628;SDS011;11481;53.694;9.910;2024-01-30T02:46:46;16.65;;;9.18;;
22628;SDS011;11481;53.694;9.910;2024-01-30T02:49:13;14.25;;;8.20;;
22628;SDS011;11481;53.694;9.910;2024-01-30T02:51:40;17.05;;;7.78;;
22628;SDS011;11481;53.694;9.910;2024-01-30T02:54:06;16.10;;;9.02;;
22628;SDS011;11481;53.694;9.910;2024-01-30T02:56:33;14.38;;;7.68;;
22628;SDS011;11481;53.694;9.910;2024-01-30T02:59:00;14.82;;;7.93;;
22628;SDS011;11481;53.694;9.910;2024-01-30T03:01:26;16.40;;;8.18;;
22628;SDS011;11481;53.694;9.910;2024-01-30T03:03:53;18.45;;;7.78;;
22628;SDS011;11481;53.694;9.910;2024-01-30T03:06:20;16.05;;;8.30;;
22628;SDS011;11481;53.694;9.910;2024-01-30T03:08:47;13.95;;;7.95;;
22628;SDS011;11481;53.694;9.910;2024-01-30T03:11:14;13.85;;;8.45;;
22628;SDS011;11481;53.694;9.910;2024-01-30T03:13:41;17.38;;;7.50;;
22628;SDS011;11481;53.694;9.910;2024-01-30T03:16:08;18.98;;;8.25;;
22628;SDS011;11481;53.694;9.910;2024-01-30T03:18:35;13.85;;;7.50;;
22628;SDS011;11481;53.694;9.910;2024-01-30T03:21:01;13.13;;;7.35;;
22628;SDS011;11481;53.694;9.910;2024-01-30T03:23:28;15.70;;;7.78;;
22628;SDS011;11481;53.694;9.910;2024-01-30T03:25:55;17.30;;;8.23;;
22628;SDS011;11481;53.694;9.910;2024-01-30T03:28:22;15.02;;;7.40;;
22628;SDS011;11481;53.694;9.910;2024-01-30T03:30:49;15.43;;;7.18;;
22628;SDS011;11481;53.694;9.910;2024-01-30T03:33:15;13.95;;;7.55;;
22628;SDS011;11481;53.694;9.910;2024-01-30T03:35:42;14.15;;;7.20;;
22628;SDS011;11481;53.694;9.910;2024-01-30T03:38:09;13.43;;;7.30;;
22628;SDS011;11481;53.694;9.910;2024-01-30T03:40:35;14.00;;;7.53;;
22628;SDS011;11481;53.694;9.910;2024-01-30T03:43:02;14.13;;;7.38;;
22628;SDS011;11481;53.694;9.910;2024-01-30T03:45:29;16.77;;;7.50;;
22628;SDS011;11481;53.694;9.910;2024-01-30T03:47:56;15.07;;;7.80;;
22628;SDS011;11481;53.694;9.910;2024-01-30T03:50:22;14.02;;;7.30;;
22628;SDS011;11481;53.694;9.910;2024-01-30T03:52:49;17.85;;;7.45;;
22628;SDS011;11481;53.694;9.910;2024-01-30T03:55:16;12.90;;;7.70;;
22628;SDS011;11481;53.694;9.910;2024-01-30T03:57:43;12.23;;;7.03;;
22628;SDS011;11481;53.694;9.910;2024-01-30T04:00:10;13.60;;;7.57;;
22628;SDS011;11481;53.694;9.910;2024-01-30T04:02:37;22.27;;;7.80;;
22628;SDS011;11481;53.694;9.910;2024-01-30T04:05:03;14.15;;;7.68;;
22628;SDS011;11481;53.694;9.910;2024-01-30T04:07:31;12.93;;;7.15;;
22628;SDS011;11481;53.694;9.910;2024-01-30T04:09:58;12.95;;;7.00;;
22628;SDS011;11481;53.694;9.910;2024-01-30T04:12:24;15.30;;;7.13;;
22628;SDS011;11481;53.694;9.910;2024-01-30T04:14:53;12.57;;;7.15;;
22628;SDS011;11481;53.694;9.910;2024-01-30T04:17:19;12.57;;;7.18;;
22628;SDS011;11481;53.694;9.910;2024-01-30T04:19:46;11.63;;;7.10;;
22628;SDS011;11481;53.694;9.910;2024-01-30T04:22:13;18.52;;;7.72;;
22628;SDS011;11481;53.694;9.910;2024-01-30T04:24:40;15.02;;;7.28;;
22628;SDS011;11481;53.694;9.910;2024-01-30T04:27:07;12.35;;;7.55;;
22628;SDS011;11481;53.694;9.910;2024-01-30T04:29:33;12.70;;;7.63;;
22628;SDS011;11481;53.694;9.910;2024-01-30T04:32:00;13.85;;;8.10;;
22628;SDS011;11481;53.694;9.910;2024-01-30T04:34:27;13.20;;;7.85;;
22628;SDS011;11481;53.694;9.910;2024-01-30T04:36:54;13.77;;;7.88;;
22628;SDS011;11481;53.694;9.910;2024-01-30T04:39:20;14.13;;;7.82;;
22628;SDS011;11481;53.694;9.910;2024-01-30T04:41:47;13.65;;;7.70;;
22628;SDS011;11481;53.694;9.910;2024-01-30T04:44:14;13.65;;;7.72;;
22628;SDS011;11481;53.694;9.910;2024-01-30T04:46:41;13.55;;;7.57;;
22628;SDS011;11481;53.694;9.910;2024-01-30T04:49:08;14.05;;;8.07;;
22628;SDS011;11481;53.694;9.910;2024-01-30T04:51:34;13.63;;;7.22;;
22628;SDS011;11481;53.694;9.910;2024-01-30T04:54:01;15.10;;;8.07;;
22628;SDS011;11481;53.694;9.910;2024-01-30T04:56:28;14.80;;;7.65;;
22628;SDS011;11481;53.694;9.910;2024-01-30T04:58:55;15.60;;;8.43;;
22628;SDS011;11481;53.694;9.910;2024-01-30T05:01:21;15.60;;;8.80;;
22628;SDS011;11481;53.694;9.910;2024-01-30T05:03:48;13.38;;;8.05;;
22628;SDS011;11481;53.694;9.910;2024-01-30T05:06:23;18.60;;;8.15;;
22628;SDS011;11481;53.694;9.910;2024-01-30T05:08:54;16.55;;;8.38;;
22628;SDS011;11481;53.694;9.910;2024-01-30T05:11:20;14.65;;;8.20;;
22628;SDS011;11481;53.694;9.910;2024-01-30T05:13:47;16.77;;;8.65;;
22628;SDS011;11481;53.694;9.910;2024-01-30T05:16:14;16.08;;;8.35;;
22628;SDS011;11481;53.694;9.910;2024-01-30T05:18:41;17.05;;;9.07;;
22628;SDS011;11481;53.694;9.910;2024-01-30T05:21:07;13.55;;;8.55;;
22628;SDS011;11481;53.694;9.910;2024-01-30T05:23:34;21.63;;;8.93;;
22628;SDS011;11481;53.694;9.910;2024-01-30T05:26:01;20.40;;;9.20;;
22628;SDS011;11481;53.694;9.910;2024-01-30T05:28:29;15.57;;;8.63;;
22628;SDS011;11481;53.694;9.910;2024-01-30T05:30:56;14.55;;;8.40;;
22628;SDS011;11481;53.694;9.910;2024-01-30T05:33:23;17.85;;;9.15;;
22628;SDS011;11481;53.694;9.910;2024-01-30T05:35:50;17.02;;;9.63;;
22628;SDS011;11481;53.694;9.910;2024-01-30T05:38:20;16.98;;;9.10;;
22628;SDS011;11481;53.694;9.910;2024-01-30T05:40:47;15.75;;;9.07;;
22628;SDS011;11481;53.694;9.910;2024-01-30T05:43:13;16.10;;;8.73;;
22628;SDS011;11481;53.694;9.910;2024-01-30T05:45:40;17.02;;;9.57;;
22628;SDS011;11481;53.694;9.910;2024-01-30T05:48:07;18.27;;;9.25;;
22628;SDS011;11481;53.694;9.910;2024-01-30T05:50:34;15.55;;;8.40;;
22628;SDS011;11481;53.694;9.910;2024-01-30T05:53:01;18.20;;;9.20;;
22628;SDS011;11481;53.694;9.910;2024-01-30T05:55:27;17.50;;;9.23;;
22628;SDS011;11481;53.694;9.910;2024-01-30T05:57:54;16.30;;;9.05;;
22628;SDS011;11481;53.694;9.910;2024-01-30T06:00:21;18.17;;;9.45;;
22628;SDS011;11481;53.694;9.910;2024-01-30T06:02:48;17.00;;;9.80;;
22628;SDS011;11481;53.694;9.910;2024-01-30T06:05:14;20.33;;;10.25;;
22628;SDS011;11481;53.694;9.910;2024-01-30T06:07:41;16.52;;;8.52;;
22628;SDS011;11481;53.694;9.910;2024-01-30T06:10:08;17.90;;;9.88;;
22628;SDS011;11481;53.694;9.910;2024-01-30T06:12:35;17.17;;;9.82;;
22628;SDS011;11481;53.694;9.910;2024-01-30T06:15:02;18.73;;;8.80;;
22628;SDS011;11481;53.694;9.910;2024-01-30T06:17:29;16.50;;;9.75;;
22628;SDS011;11481;53.694;9.910;2024-01-30T06:19:56;17.05;;;9.55;;
22628;SDS011;11481;53.694;9.910;2024-01-30T06:22:22;19.30;;;10.23;;
22628;SDS011;11481;53.694;9.910;2024-01-30T06:24:49;18.02;;;9.13;;
22628;SDS011;11481;53.694;9.910;2024-01-30T06:27:16;18.80;;;9.68;;
22628;SDS011;11481;53.694;9.910;2024-01-30T06:29:43;21.35;;;10.23;;
22628;SDS011;11481;53.694;9.910;2024-01-30T06:32:10;18.80;;;9.80;;
22628;SDS011;11481;53.694;9.910;2024-01-30T06:34:37;17.55;;;9.70;;
22628;SDS011;11481;53.694;9.910;2024-01-30T06:37:06;18.65;;;9.30;;
22628;SDS011;11481;53.694;9.910;2024-01-30T06:39:32;18.92;;;10.13;;
22628;SDS011;11481;53.694;9.910;2024-01-30T06:41:59;19.45;;;10.15;;
22628;SDS011;11481;53.694;9.910;2024-01-30T06:44:26;17.92;;;9.88;;
22628;SDS011;11481;53.694;9.910;2024-01-30T06:46:55;20.15;;;9.98;;
22628;SDS011;11481;53.694;9.910;2024-01-30T06:49:22;17.52;;;9.07;;
22628;SDS011;11481;53.694;9.910;2024-01-30T06:51:49;18.52;;;9.57;;
22628;SDS011;11481;53.694;9.910;2024-01-30T06:54:16;23.05;;;10.05;;
22628;SDS011;11481;53.694;9.910;2024-01-30T06:56:42;17.88;;;10.02;;
22628;SDS011;11481;53.694;9.910;2024-01-30T06:59:09;19.83;;;10.35;;
22628;SDS011;11481;53.694;9.910;2024-01-30T07:01:36;19.55;;;9.40;;
22628;SDS011;11481;53.694;9.910;2024-01-30T07:04:03;18.25;;;9.75;;
22628;SDS011;11481;53.694;9.910;2024-01-30T07:06:30;25.45;;;11.85;;
22628;SDS011;11481;53.694;9.910;2024-01-30T07:08:57;19.35;;;10.60;;
22628;SDS011;11481;53.694;9.910;2024-01-30T07:11:23;20.15;;;11.35;;
22628;SDS011;11481;53.694;9.910;2024-01-30T07:13:51;17.90;;;9.98;;
22628;SDS011;11481;53.694;9.910;2024-01-30T07:16:17;19.50;;;10.63;;
22628;SDS011;11481;53.694;9.910;2024-01-30T07:18:44;18.33;;;11.23;;
22628;SDS011;11481;53.694;9.910;2024-01-30T07:21:11;16.88;;;10.57;;
22628;SDS011;11481;53.694;9.910;2024-01-30T07:23:38;17.73;;;10.80;;
22628;SDS011;11481;53.694;9.910;2024-01-30T07:26:05;21.48;;;11.30;;
22628;SDS011;11481;53.694;9.910;2024-01-30T07:28:33;19.98;;;10.50;;
22628;SDS011;11481;53.694;9.910;2024-01-30T07:31:00;21.05;;;10.85;;
22628;SDS011;11481;53.694;9.910;2024-01-30T07:33:27;19.35;;;10.32;;
22628;SDS011;11481;53.694;9.910;2024-01-30T07:35:54;18.10;;;9.98;;
22628;SDS011;11481;53.694;9.910;2024-01-30T07:38:21;16.75;;;10.30;;
22628;SDS011;11481;53.694;9.910;2024-01-30T07:40:47;19.85;;;10.18;;
22628;SDS011;11481;53.694;9.910;2024-01-30T07:43:14;26.15;;;11.63;;
22628;SDS011;11481;53.694;9.910;2024-01-30T07:45:41;20.33;;;10.85;;
22628;SDS011;11481;53.694;9.910;2024-01-30T07:48:08;19.48;;;10.93;;
22628;SDS011;11481;53.694;9.910;2024-01-30T07:50:34;23.67;;;11.88;;
22628;SDS011;11481;53.694;9.910;2024-01-30T07:53:01;24.58;;;12.20;;
22628;SDS011;11481;53.694;9.910;2024-01-30T07:55:41;22.65;;;12.30;;
22628;SDS011;11481;53.694;9.910;2024-01-30T07:58:10;21.85;;;11.35;;
22628;SDS011;11481;53.694;9.910;2024-01-30T08:00:36;23.42;;;11.40;;
22628;SDS011;11481;53.694;9.910;2024-01-30T08:03:03;19.42;;;10.73;;
22628;SDS011;11481;53.694;9.910;2024-01-30T08:05:30;24.83;;;11.48;;
22628;SDS011;11481;53.694;9.910;2024-01-30T08:07:57;20.75;;;10.93;;
22628;SDS011;11481;53.694;9.910;2024-01-30T08:10:24;22.88;;;11.82;;
22628;SDS011;11481;53.694;9.910;2024-01-30T08:12:51;19.23;;;10.85;;
22628;SDS011;11481;53.694;9.910;2024-01-30T08:15:17;21.08;;;11.07;;
22628;SDS011;11481;53.694;9.910;2024-01-30T08:17:44;20.60;;;11.32;;
22628;SDS011;11481;53.694;9.910;2024-01-30T08:20:11;21.67;;;11.15;;
22628;SDS011;11481;53.694;9.910;2024-01-30T08:22:39;21.27;;;11.35;;
22628;SDS011;11481;53.694;9.910;2024-01-30T08:25:06;19.77;;;11.27;;
22628;SDS011;11481;53.694;9.910;2024-01-30T08:27:34;21.35;;;11.60;;
22628;SDS011;11481;53.694;9.910;2024-01-30T08:30:02;21.60;;;11.63;;
22628;SDS011;11481;53.694;9.910;2024-01-30T08:32:29;20.70;;;11.57;;
22628;SDS011;11481;53.694;9.910;2024-01-30T08:34:56;23.75;;;12.38;;
22628;SDS011;11481;53.694;9.910;2024-01-30T08:37:23;21.00;;;11.43;;
22628;SDS011;11481;53.694;9.910;2024-01-30T08:39:50;21.52;;;12.00;;
22628;SDS011;11481;53.694;9.910;2024-01-30T08:42:17;20.52;;;11.98;;
22628;SDS011;11481;53.694;9.910;2024-01-30T08:44:48;19.55;;;10.95;;
22628;SDS011;11481;53.694;9.910;2024-01-30T08:47:17;21.40;;;11.48;;
22628;SDS011;11481;53.694;9.910;2024-01-30T08:49:45;23.20;;;11.85;;
22628;SDS011;11481;53.694;9.910;2024-01-30T08:52:11;22.42;;;12.55;;
22628;SDS011;11481;53.694;9.910;2024-01-30T08:54:38;24.38;;;12.65;;
22628;SDS011;11481;53.694;9.910;2024-01-30T08:57:05;24.08;;;13.32;;
22628;SDS011;11481;53.694;9.910;2024-01-30T08:59:32;22.95;;;12.48;;
22628;SDS011;11481;53.694;9.910;2024-01-30T09:01:59;25.92;;;12.25;;
22628;SDS011;11481;53.694;9.910;2024-01-30T09:04:37;27.27;;;13.38;;
22628;SDS011;11481;53.694;9.910;2024-01-30T09:07:05;24.33;;;13.02;;
22628;SDS011;11481;53.694;9.910;2024-01-30T09:09:35;22.30;;;12.80;;
22628;SDS011;11481;53.694;9.910;2024-01-30T09:12:03;27.65;;;12.68;;
22628;SDS011;11481;53.694;9.910;2024-01-30T09:14:33;26.95;;;13.40;;
22628;SDS011;11481;53.694;9.910;2024-01-30T09:16:59;33.58;;;15.35;;
22628;SDS011;11481;53.694;9.910;2024-01-30T09:19:26;31.10;;;16.33;;
22628;SDS011;11481;53.694;9.910;2024-01-30T09:21:53;29.10;;;14.63;;
22628;SDS011;11481;53.694;9.910;2024-01-30T09:24:20;23.08;;;13.45;;
22628;SDS011;11481;53.694;9.910;2024-01-30T09:26:47;27.05;;;13.70;;
22628;SDS011;11481;53.694;9.910;2024-01-30T09:29:14;27.58;;;14.70;;
22628;SDS011;11481;53.694;9.910;2024-01-30T09:31:43;24.92;;;13.77;;
22628;SDS011;11481;53.694;9.910;2024-01-30T09:34:10;25.95;;;14.85;;
22628;SDS011;11481;53.694;9.910;2024-01-30T09:36:37;26.35;;;14.52;;
22628;SDS011;11481;53.694;9.910;2024-01-30T09:39:04;25.45;;;13.52;;
22628;SDS011;11481;53.694;9.910;2024-01-30T09:41:32;26.65;;;14.10;;
22628;SDS011;11481;53.694;9.910;2024-01-30T09:44:03;26.08;;;13.40;;
22628;SDS011;11481;53.694;9.910;2024-01-30T09:46:32;24.27;;;13.55;;
22628;SDS011;11481;53.694;9.910;2024-01-30T09:49:00;25.27;;;13.05;;
22628;SDS011;11481;53.694;9.910;2024-01-30T09:51:29;25.63;;;14.05;;
22628;SDS011;11481;53.694;9.910;2024-01-30T09:53:56;25.98;;;14.10;;
22628;SDS011;11481;53.694;9.910;2024-01-30T09:56:23;24.52;;;14.25;;
22628;SDS011;11481;53.694;9.910;2024-01-30T09:58:50;20.98;;;12.93;;
22628;SDS011;11481;53.694;9.910;2024-01-30T10:01:17;24.42;;;13.60;;
22628;SDS011;11481;53.694;9.910;2024-01-30T10:03:45;25.25;;;13.80;;
22628;SDS011;11481;53.694;9.910;2024-01-30T10:06:12;25.77;;;12.73;;
22628;SDS011;11481;53.694;9.910;2024-01-30T10:08:40;22.67;;;12.75;;
22628;SDS011;11481;53.694;9.910;2024-01-30T10:11:08;25.52;;;14.38;;
22628;SDS011;11481;53.694;9.910;2024-01-30T10:13:36;30.85;;;14.27;;
22628;SDS011;11481;53.694;9.910;2024-01-30T10:16:02;24.80;;;13.73;;
22628;SDS011;11481;53.694;9.910;2024-01-30T10:18:32;23.95;;;12.95;;
22628;SDS011;11481;53.694;9.910;2024-01-30T10:20:59;25.75;;;13.38;;
22628;SDS011;11481;53.694;9.910;2024-01-30T10:23:26;23.55;;;12.85;;
22628;SDS011;11481;53.694;9.910;2024-01-30T10:25:57;27.23;;;13.57;;
22628;SDS011;11481;53.694;9.910;2024-01-30T10:28:26;23.25;;;13.60;;
22628;SDS011;11481;53.694;9.910;2024-01-30T10:31:02;24.35;;;14.63;;
22628;SDS011;11481;53.694;9.910;2024-01-30T10:33:32;21.83;;;13.23;;
22628;SDS011;11481;53.694;9.910;2024-01-30T10:36:00;25.42;;;13.95;;
22628;SDS011;11481;53.694;9.910;2024-01-30T10:38:29;26.02;;;12.93;;
22628;SDS011;11481;53.694;9.910;2024-01-30T10:40:57;22.10;;;13.00;;
22628;SDS011;11481;53.694;9.910;2024-01-30T10:43:31;26.73;;;12.55;;
22628;SDS011;11481;53.694;9.910;2024-01-30T10:46:02;23.13;;;13.32;;
22628;SDS011;11481;53.694;9.910;2024-01-30T10:48:36;21.92;;;13.45;;
22628;SDS011;11481;53.694;9.910;2024-01-30T10:51:09;23.08;;;13.15;;
22628;SDS011;11481;53.694;9.910;2024-01-30T10:53:39;25.33;;;13.95;;
22628;SDS011;11481;53.694;9.910;2024-01-30T10:56:07;25.38;;;13.27;;
22628;SDS011;11481;53.694;9.910;2024-01-30T10:58:36;23.88;;;12.48;;
22628;SDS011;11481;53.694;9.910;2024-01-30T11:01:03;25.60;;;12.80;;
22628;SDS011;11481;53.694;9.910;2024-01-30T11:03:30;20.38;;;12.30;;
22628;SDS011;11481;53.694;9.910;2024-01-30T11:06:00;22.67;;;13.13;;
22628;SDS011;11481;53.694;9.910;2024-01-30T11:08:27;25.73;;;12.80;;
22628;SDS011;11481;53.694;9.910;2024-01-30T11:10:55;21.55;;;11.93;;
22628;SDS011;11481;53.694;9.910;2024-01-30T11:13:29;24.42;;;12.75;;
22628;SDS011;11481;53.694;9.910;2024-01-30T11:16:00;20.73;;;11.95;;
22628;SDS011;11481;53.694;9.910;2024-01-30T11:18:32;19.02;;;11.20;;
22628;SDS011;11481;53.694;9.910;2024-01-30T11:20:59;22.25;;;11.50;;
22628;SDS011;11481;53.694;9.910;2024-01-30T11:23:28;21.73;;;11.65;;
22628;SDS011;11481;53.694;9.910;2024-01-30T11:25:55;20.52;;;11.43;;
22628;SDS011;11481;53.694;9.910;2024-01-30T11:28:24;20.42;;;11.20;;
22628;SDS011;11481;53.694;9.910;2024-01-30T11:31:07;18.73;;;11.20;;
22628;SDS011;11481;53.694;9.910;2024-01-30T11:33:34;19.05;;;10.45;;
22628;SDS011;11481;53.694;9.910;2024-01-30T11:36:01;20.52;;;11.52;;
22628;SDS011;11481;53.694;9.910;2024-01-30T11:38:29;19.08;;;11.50;;
22628;SDS011;11481;53.694;9.910;2024-01-30T11:40:56;19.35;;;11.18;;
22628;SDS011;11481;53.694;9.910;2024-01-30T11:43:23;20.30;;;11.13;;
22628;SDS011;11481;53.694;9.910;2024-01-30T11:45:50;18.13;;;11.00;;
22628;SDS011;11481;53.694;9.910;2024-01-30T11:48:18;18.38;;;11.30;;
22628;SDS011;11481;53.694;9.910;2024-01-30T11:50:46;18.17;;;11.30;;
22628;SDS011;11481;53.694;9.910;2024-01-30T11:53:13;21.70;;;11.38;;
22628;SDS011;11481;53.694;9.910;2024-01-30T11:55:39;42.55;;;18.63;;
22628;SDS011;11481;53.694;9.910;2024-01-30T11:58:06;19.67;;;11.48;;
22628;SDS011;11481;53.694;9.910;2024-01-30T12:00:33;23.55;;;11.55;;
22628;SDS011;11481;53.694;9.910;2024-01-30T12:03:01;17.65;;;10.23;;
22628;SDS011;11481;53.694;9.910;2024-01-30T12:05:30;17.55;;;10.52;;
22628;SDS011;11481;53.694;9.910;2024-01-30T12:07:57;21.42;;;11.50;;
22628;SDS011;11481;53.694;9.910;2024-01-30T12:10:26;18.33;;;10.70;;
22628;SDS011;11481;53.694;9.910;2024-01-30T12:12:53;22.33;;;10.88;;
22628;SDS011;11481;53.694;9.910;2024-01-30T12:15:21;18.83;;;10.95;;
22628;SDS011;11481;53.694;9.910;2024-01-30T12:17:48;18.27;;;10.88;;
22628;SDS011;11481;53.694;9.910;2024-01-30T12:20:17;19.10;;;10.32;;
22628;SDS011;11481;53.694;9.910;2024-01-30T12:22:49;22.67;;;11.05;;
22628;SDS011;11481;53.694;9.910;2024-01-30T12:25:17;23.33;;;11.25;;
22628;SDS011;11481;53.694;9.910;2024-01-30T12:27:49;19.75;;;11.02;;
22628;SDS011;11481;53.694;9.910;2024-01-30T12:30:17;20.73;;;11.20;;
22628;SDS011;11481;53.694;9.910;2024-01-30T12:32:47;23.73;;;11.57;;
22628;SDS011;11481;53.694;9.910;2024-01-30T12:35:17;20.42;;;10.63;;
22628;SDS011;11481;53.694;9.910;2024-01-30T12:37:46;20.25;;;11.32;;
22628;SDS011;11481;53.694;9.910;2024-01-30T12:40:14;22.45;;;10.55;;
22628;SDS011;11481;53.694;9.910;2024-01-30T12:42:42;19.25;;;9.93;;
22628;SDS011;11481;53.694;9.910;2024-01-30T12:45:13;15.68;;;9.68;;
22628;SDS011;11481;53.694;9.910;2024-01-30T12:47:41;21.92;;;11.05;;
22628;SDS011;11481;53.694;9.910;2024-01-30T12:50:08;21.60;;;11.10;;
22628;SDS011;11481;53.694;9.910;2024-01-30T12:52:36;22.90;;;11.40;;
22628;SDS011;11481;53.694;9.910;2024-01-30T12:55:03;20.75;;;11.57;;
22628;SDS011;11481;53.694;9.910;2024-01-30T12:57:30;21.20;;;11.20;;
22628;SDS011;11481;53.694;9.910;2024-01-30T12:59:57;16.67;;;10.48;;
22628;SDS011;11481;53.694;9.910;2024-01-30T13:02:24;19.25;;;11.02;;
22628;SDS011;11481;53.694;9.910;2024-01-30T13:04:52;21.92;;;11.15;;
22628;SDS011;11481;53.694;9.910;2024-01-30T13:07:19;18.17;;;11.13;;
22628;SDS011;11481;53.694;9.910;2024-01-30T13:09:47;20.80;;;10.82;;
22628;SDS011;11481;53.694;9.910;2024-01-30T13:12:13;19.70;;;11.10;;
22628;SDS011;11481;53.694;9.910;2024-01-30T13:14:41;20.38;;;11.30;;
22628;SDS011;11481;53.694;9.910;2024-01-30T13:17:08;21.92;;;11.05;;
22628;SDS011;11481;53.694;9.910;2024-01-30T13:19:35;18.75;;;10.98;;
22628;SDS011;11481;53.694;9.910;2024-01-30T13:22:02;17.83;;;10.70;;
22628;SDS011;11481;53.694;9.910;2024-01-30T13:24:29;22.13;;;11.25;;
22628;SDS011;11481;53.694;9.910;2024-01-30T13:26:56;19.83;;;11.10;;
22628;SDS011;11481;53.694;9.910;2024-01-30T13:29:24;21.17;;;11.57;;
22628;SDS011;11481;53.694;9.910;2024-01-30T13:31:51;18.85;;;11.70;;
22628;SDS011;11481;53.694;9.910;2024-01-30T13:34:17;22.50;;;10.98;;
22628;SDS011;11481;53.694;9.910;2024-01-30T13:36:44;18.45;;;10.90;;
22628;SDS011;11481;53.694;9.910;2024-01-30T13:39:11;19.00;;;11.75;;
22628;SDS011;11481;53.694;9.910;2024-01-30T13:41:38;19.17;;;11.02;;
22628;SDS011;11481;53.694;9.910;2024-01-30T13:44:05;24.08;;;11.43;;
22628;SDS011;11481;53.694;9.910;2024-01-30T13:46:32;20.42;;;11.25;;
22628;SDS011;11481;53.694;9.910;2024-01-30T13:48:58;18.98;;;11.35;;
22628;SDS011;11481;53.694;9.910;2024-01-30T13:51:26;21.33;;;10.68;;
22628;SDS011;11481;53.694;9.910;2024-01-30T13:53:53;17.63;;;10.20;;
22628;SDS011;11481;53.694;9.910;2024-01-30T13:56:20;21.73;;;10.68;;
22628;SDS011;11481;53.694;9.910;2024-01-30T13:58:50;22.27;;;11.05;;
22628;SDS011;11481;53.694;9.910;2024-01-30T14:01:17;17.83;;;9.93;;
22628;SDS011;11481;53.694;9.910;2024-01-30T14:03:44;19.80;;;11.25;;
22628;SDS011;11481;53.694;9.910;2024-01-30T14:06:11;20.73;;;11.02;;
22628;SDS011;11481;53.694;9.910;2024-01-30T14:08:38;18.10;;;10.23;;
22628;SDS011;11481;53.694;9.910;2024-01-30T14:11:05;23.58;;;10.70;;
22628;SDS011;11481;53.694;9.910;2024-01-30T14:13:32;20.92;;;11.55;;
22628;SDS011;11481;53.694;9.910;2024-01-30T14:15:59;20.25;;;11.45;;
22628;SDS011;11481;53.694;9.910;2024-01-30T14:18:26;19.52;;;10.95;;
22628;SDS011;11481;53.694;9.910;2024-01-30T14:20:53;21.35;;;11.50;;
22628;SDS011;11481;53.694;9.910;2024-01-30T14:23:20;23.92;;;11.43;;
22628;SDS011;11481;53.694;9.910;2024-01-30T14:25:47;18.88;;;9.90;;
22628;SDS011;11481;53.694;9.910;2024-01-30T14:28:15;21.92;;;11.18;;
22628;SDS011;11481;53.694;9.910;2024-01-30T14:30:42;18.52;;;10.48;;